createdAt,value
2023-02-08T00:00:13.504Z,37.40
2023-02-08T00:02:41.276Z,37.13
2023-02-08T00:05:08.837Z,36.90
2023-02-08T00:07:35.987Z,37.29
2023-02-08T00:10:06.611Z,36.95
2023-02-08T00:12:34.112Z,37.59
2023-02-08T00:15:01.262Z,37.89
2023-02-08T00:17:28.739Z,37.48
2023-02-08T00:19:55.907Z,37.39
2023-02-08T00:22:23.332Z,37.37
2023-02-08T00:24:51.444Z,37.75
2023-02-08T00:27:18.668Z,37.63
2023-02-08T00:29:45.915Z,37.88
2023-02-08T00:32:13.365Z,37.42
2023-02-08T00:34:40.511Z,37.13
2023-02-08T00:37:09.693Z,37.17
2023-02-08T00:39:37.132Z,38.08
2023-02-08T00:42:04.394Z,37.22
2023-02-08T00:44:32.935Z,37.62
2023-02-08T00:47:00.354Z,37.14
2023-02-08T00:49:27.575Z,37.25
2023-02-08T00:51:54.729Z,36.51
2023-02-08T00:54:23.497Z,37.12
2023-02-08T00:56:50.658Z,36.99
2023-02-08T00:59:19.054Z,36.67
2023-02-08T01:01:46.526Z,36.53
2023-02-08T01:04:13.685Z,36.67
2023-02-08T01:06:40.874Z,37.04
2023-02-08T01:09:08.305Z,36.59
2023-02-08T01:11:35.622Z,37.77
2023-02-08T01:14:02.769Z,38.42
2023-02-08T01:16:31.147Z,38.35
2023-02-08T01:19:00.623Z,37.49
2023-02-08T01:21:33.825Z,37.47
2023-02-08T01:24:01.463Z,37.24
2023-02-08T01:26:30.458Z,37.18
2023-02-08T01:28:59.416Z,36.98
2023-02-08T01:31:30.836Z,36.25
2023-02-08T01:34:00.390Z,35.83
2023-02-08T01:36:28.152Z,37.44
2023-02-08T01:38:55.299Z,36.84
2023-02-08T01:41:26.534Z,36.07
2023-02-08T01:44:00.010Z,35.99
2023-02-08T01:46:27.212Z,35.94
2023-02-08T01:48:54.936Z,36.39
2023-02-08T01:51:23.861Z,35.48
2023-02-08T01:53:51.154Z,34.27
2023-02-08T01:56:21.314Z,34.20
2023-02-08T01:58:49.764Z,33.92
2023-02-08T02:01:16.979Z,34.57
2023-02-08T02:03:44.457Z,34.46
2023-02-08T02:06:13.785Z,35.26
2023-02-08T02:08:43.196Z,34.98
2023-02-08T02:11:11.564Z,34.87
2023-02-08T02:13:38.744Z,35.56
2023-02-08T02:16:06.352Z,35.43
2023-02-08T02:18:33.761Z,35.67
2023-02-08T02:21:19.690Z,35.45
2023-02-08T02:24:05.691Z,35.27
2023-02-08T02:26:35.882Z,35.41
2023-02-08T02:29:22.276Z,37.23
2023-02-08T02:31:49.500Z,35.86
2023-02-08T02:34:23.239Z,35.25
2023-02-08T02:36:59.290Z,35.10
2023-02-08T02:39:26.790Z,35.91
2023-02-08T02:42:12.862Z,35.73
2023-02-08T02:44:43.375Z,35.97
2023-02-08T02:47:10.641Z,36.03
2023-02-08T02:49:46.167Z,36.69
2023-02-08T02:52:19.291Z,35.87
2023-02-08T02:54:47.879Z,36.35
2023-02-08T02:57:17.260Z,37.21
2023-02-08T02:59:46.793Z,37.81
2023-02-08T03:02:14.103Z,36.52
2023-02-08T03:04:41.484Z,36.80
2023-02-08T03:07:11.414Z,38.17
2023-02-08T03:09:44.387Z,38.22
2023-02-08T03:12:31.281Z,37.23
2023-02-08T03:15:00.312Z,37.36
2023-02-08T03:17:27.684Z,37.37
2023-02-08T03:19:54.818Z,36.42
2023-02-08T03:22:22.889Z,36.71
2023-02-08T03:25:01.486Z,38.32
2023-02-08T03:27:33.116Z,36.59
2023-02-08T03:30:02.129Z,37.58
2023-02-08T03:32:38.434Z,37.64
2023-02-08T03:35:32.119Z,36.92
2023-02-08T03:38:06.134Z,36.68
2023-02-08T03:40:46.577Z,37.00
2023-02-08T03:43:30.310Z,37.16
2023-02-08T03:46:00.513Z,36.77
2023-02-08T03:48:27.669Z,36.49
2023-02-08T03:50:54.959Z,36.12
2023-02-08T03:53:22.718Z,36.45
2023-02-08T03:55:50.425Z,36.51
2023-02-08T03:58:26.320Z,36.40
2023-02-08T04:00:58.704Z,36.73
2023-02-08T04:03:27.137Z,36.91
2023-02-08T04:05:54.293Z,37.19
2023-02-08T04:08:21.990Z,37.47
2023-02-08T04:10:49.709Z,36.11
2023-02-08T04:13:16.871Z,36.61
2023-02-08T04:15:44.549Z,36.37
2023-02-08T04:18:12.126Z,37.44
2023-02-08T04:20:39.573Z,36.50
2023-02-08T04:23:06.933Z,35.96
2023-02-08T04:25:34.342Z,36.57
2023-02-08T04:28:01.513Z,38.61
2023-02-08T04:30:28.723Z,38.35
2023-02-08T04:32:56.244Z,38.48
2023-02-08T04:35:23.370Z,37.46
2023-02-08T04:37:50.589Z,37.36
2023-02-08T04:40:18.035Z,36.95
2023-02-08T04:42:45.161Z,37.48
2023-02-08T04:45:12.360Z,35.35
2023-02-08T04:47:39.790Z,35.74
2023-02-08T04:50:06.958Z,36.06
2023-02-08T04:52:34.085Z,36.72
2023-02-08T04:55:01.575Z,36.67
2023-02-08T04:57:28.722Z,37.25
2023-02-08T04:59:55.856Z,36.14
2023-02-08T05:02:23.286Z,35.97
2023-02-08T05:04:50.747Z,35.75
2023-02-08T05:07:17.926Z,36.44
2023-02-08T05:09:45.392Z,36.38
2023-02-08T05:12:12.632Z,37.36
2023-02-08T05:14:40.807Z,37.82
2023-02-08T05:17:08.208Z,37.29
2023-02-08T05:19:35.396Z,36.03
2023-02-08T05:22:02.572Z,35.81
2023-02-08T05:24:30.001Z,35.66
2023-02-08T05:26:57.204Z,35.53
2023-02-08T05:29:24.328Z,36.11
2023-02-08T05:31:51.861Z,35.94
2023-02-08T05:34:19.033Z,36.06
2023-02-08T05:36:46.327Z,36.04
2023-02-08T05:39:13.741Z,35.98
2023-02-08T05:41:41.986Z,35.77
2023-02-08T05:44:09.549Z,34.44
2023-02-08T05:46:38.369Z,35.23
2023-02-08T05:49:05.682Z,34.87
2023-02-08T05:51:32.848Z,35.44
2023-02-08T05:54:00.283Z,35.25
2023-02-08T05:56:27.962Z,35.01
2023-02-08T05:58:55.108Z,34.48
2023-02-08T06:01:22.674Z,34.29
2023-02-08T06:03:50.160Z,34.45
2023-02-08T06:06:17.480Z,34.40
2023-02-08T06:08:44.753Z,33.96
2023-02-08T06:11:12.251Z,34.06
2023-02-08T06:13:39.392Z,34.05
2023-02-08T06:16:06.780Z,34.07
2023-02-08T06:18:34.254Z,34.16
2023-02-08T06:21:01.410Z,34.28
2023-02-08T06:23:28.584Z,34.39
2023-02-08T06:25:56.019Z,35.08
2023-02-08T06:28:23.230Z,34.90
2023-02-08T06:30:51.470Z,34.50
2023-02-08T06:33:19.232Z,34.14
2023-02-08T06:35:46.864Z,34.48
2023-02-08T06:38:14.230Z,33.88
2023-02-08T06:40:42.163Z,34.45
2023-02-08T06:43:09.571Z,34.29
2023-02-08T06:45:36.757Z,34.79
2023-02-08T06:48:04.297Z,34.67
2023-02-08T06:50:31.828Z,34.66
2023-02-08T06:52:59.041Z,35.37
2023-02-08T06:55:26.460Z,35.36
2023-02-08T06:57:54.161Z,35.33
2023-02-08T07:00:21.502Z,34.97
2023-02-08T07:02:49.326Z,35.10
2023-02-08T07:05:16.502Z,34.42
2023-02-08T07:07:43.871Z,34.35
2023-02-08T07:10:11.332Z,35.50
2023-02-08T07:12:38.485Z,36.14
2023-02-08T07:15:05.723Z,35.99
2023-02-08T07:17:33.181Z,36.01
2023-02-08T07:20:00.359Z,35.82
2023-02-08T07:22:27.539Z,35.77
2023-02-08T07:24:55.981Z,36.73
2023-02-08T07:27:25.039Z,35.21
2023-02-08T07:29:53.170Z,34.88
2023-02-08T07:32:20.661Z,36.32
2023-02-08T07:34:47.897Z,35.38
2023-02-08T07:37:15.222Z,38.05
2023-02-08T07:39:42.699Z,36.15
2023-02-08T07:42:10.880Z,37.76
2023-02-08T07:44:40.296Z,36.23
2023-02-08T07:47:07.849Z,37.50
2023-02-08T07:49:35.099Z,37.06
2023-02-08T07:52:02.450Z,37.49
2023-02-08T07:54:30.029Z,38.44
2023-02-08T07:56:57.168Z,38.72
2023-02-08T07:59:24.483Z,39.26
2023-02-08T08:01:52.182Z,38.68
2023-02-08T08:04:19.933Z,37.27
2023-02-08T08:06:47.145Z,38.08
2023-02-08T08:09:15.425Z,39.01
2023-02-08T08:11:42.839Z,38.78
2023-02-08T08:14:10.044Z,38.57
2023-02-08T08:16:38.440Z,40.25
2023-02-08T08:19:05.909Z,41.60
2023-02-08T08:21:33.069Z,42.53
2023-02-08T08:24:00.215Z,41.47
2023-02-08T08:26:27.670Z,41.24
2023-02-08T08:28:54.865Z,41.45
2023-02-08T08:31:25.250Z,39.27
2023-02-08T08:33:53.802Z,39.91
2023-02-08T08:36:20.955Z,39.77
2023-02-08T08:38:48.135Z,40.35
2023-02-08T08:41:17.901Z,41.66
2023-02-08T08:43:46.730Z,41.36
2023-02-08T08:46:15.202Z,42.63
2023-02-08T08:48:42.864Z,41.02
2023-02-08T08:51:10.229Z,41.03
2023-02-08T08:53:37.394Z,41.85
2023-02-08T08:56:05.349Z,42.92
2023-02-08T08:58:32.590Z,43.21
2023-02-08T09:01:00.197Z,41.97
2023-02-08T09:03:28.067Z,41.55
2023-02-08T09:05:55.448Z,44.09
2023-02-08T09:08:22.649Z,43.98
2023-02-08T09:10:50.148Z,43.06
2023-02-08T09:13:19.859Z,42.55
2023-02-08T09:15:48.061Z,42.31
2023-02-08T09:18:15.647Z,41.99
2023-02-08T09:20:43.187Z,42.07
2023-02-08T09:23:10.672Z,42.21
2023-02-08T09:25:38.206Z,42.98
2023-02-08T09:28:05.430Z,42.82
2023-02-08T09:30:32.973Z,43.01
2023-02-08T09:33:00.464Z,41.42
2023-02-08T09:35:27.627Z,43.23
2023-02-08T09:37:55.793Z,43.59
2023-02-08T09:40:24.290Z,41.75
2023-02-08T09:43:00.762Z,39.92
2023-02-08T09:45:36.752Z,40.70
2023-02-08T09:48:15.261Z,40.92
2023-02-08T09:50:44.808Z,41.16
2023-02-08T09:53:19.754Z,40.29
2023-02-08T09:55:48.466Z,40.70
2023-02-08T09:58:21.874Z,40.58
2023-02-08T10:00:50.806Z,41.89
2023-02-08T10:03:24.241Z,42.49
2023-02-08T10:05:51.456Z,41.54
2023-02-08T10:08:18.951Z,41.53
2023-02-08T10:10:46.069Z,41.12
2023-02-08T10:13:19.360Z,39.59
2023-02-08T10:15:52.303Z,38.52
2023-02-08T10:18:25.804Z,37.17
2023-02-08T10:21:08.294Z,38.13
2023-02-08T10:23:38.677Z,38.20
2023-02-08T10:26:18.222Z,37.87
2023-02-08T10:28:45.568Z,38.53
2023-02-08T10:31:13.285Z,37.80
2023-02-08T10:33:40.524Z,38.64
2023-02-08T10:36:15.316Z,39.27
2023-02-08T10:38:46.793Z,41.64
2023-02-08T10:41:15.968Z,40.05
2023-02-08T10:43:48.913Z,39.81
2023-02-08T10:46:28.341Z,39.68
2023-02-08T10:49:14.178Z,38.72
2023-02-08T10:51:41.454Z,37.95
2023-02-08T10:54:12.850Z,38.46
2023-02-08T10:56:58.571Z,38.40
2023-02-08T10:59:26.721Z,38.64
2023-02-08T11:01:54.056Z,39.55
2023-02-08T11:04:21.291Z,39.96
2023-02-08T11:06:50.097Z,39.91
2023-02-08T11:09:46.497Z,39.59
2023-02-08T11:12:17.809Z,39.59
2023-02-08T11:14:48.360Z,39.53
2023-02-08T11:17:26.443Z,38.67
2023-02-08T11:19:53.655Z,38.12
2023-02-08T11:22:23.415Z,37.63
2023-02-08T11:25:01.067Z,37.80
2023-02-08T11:27:28.512Z,36.62
2023-02-08T11:30:22.043Z,35.97
2023-02-08T11:32:50.759Z,37.43
2023-02-08T11:35:20.714Z,39.12
2023-02-08T11:37:48.491Z,39.42
2023-02-08T11:40:21.079Z,38.87
2023-02-08T11:42:48.419Z,38.00
2023-02-08T11:45:19.626Z,37.46
2023-02-08T11:47:46.958Z,37.49
2023-02-08T11:50:34.358Z,36.28
2023-02-08T11:53:02.537Z,35.52
2023-02-08T11:55:31.076Z,37.28
2023-02-08T11:58:02.077Z,36.15
2023-02-08T12:00:35.547Z,35.97
2023-02-08T12:03:06.087Z,34.48
2023-02-08T12:05:42.612Z,34.35
2023-02-08T12:08:29.197Z,34.54
2023-02-08T12:11:12.074Z,36.90
2023-02-08T12:13:54.980Z,36.23
2023-02-08T12:16:26.315Z,34.88
2023-02-08T12:19:09.271Z,35.44
2023-02-08T12:21:45.523Z,35.17
2023-02-08T12:24:22.001Z,35.15
2023-02-08T12:27:07.704Z,35.43
2023-02-08T12:30:10.696Z,35.30
2023-02-08T12:32:40.813Z,36.48
2023-02-08T12:35:16.019Z,36.59
2023-02-08T12:38:09.177Z,35.26
2023-02-08T12:40:55.341Z,35.28
2023-02-08T12:43:22.679Z,34.35
2023-02-08T12:45:58.967Z,34.64
2023-02-08T12:48:29.141Z,34.60
2023-02-08T12:51:00.627Z,35.66
2023-02-08T12:53:31.039Z,35.44
2023-02-08T12:55:59.758Z,34.53
2023-02-08T12:58:46.145Z,34.04
2023-02-08T13:01:32.148Z,33.43
2023-02-08T13:04:04.950Z,35.53
2023-02-08T13:06:36.503Z,35.78
2023-02-08T13:09:05.064Z,32.89
2023-02-08T13:11:38.586Z,32.49
2023-02-08T13:14:12.134Z,33.22
2023-02-08T13:16:42.196Z,33.62
2023-02-08T13:19:18.483Z,32.91
2023-02-08T13:21:45.901Z,33.39
2023-02-08T13:24:24.095Z,33.94
2023-02-08T13:26:51.573Z,34.00
2023-02-08T13:29:19.774Z,33.43
2023-02-08T13:31:52.190Z,33.52
2023-02-08T13:34:19.649Z,33.61
2023-02-08T13:36:51.543Z,35.10
2023-02-08T13:39:41.426Z,34.41
2023-02-08T13:42:18.841Z,33.46
2023-02-08T13:44:49.010Z,33.56
2023-02-08T13:47:42.790Z,33.35
2023-02-08T13:50:29.352Z,33.90
2023-02-08T13:52:57.162Z,33.87
2023-02-08T13:55:34.380Z,33.91
2023-02-08T13:58:01.807Z,33.21
2023-02-08T14:00:33.759Z,33.33
2023-02-08T14:03:02.121Z,31.80
2023-02-08T14:05:32.466Z,31.77
2023-02-08T14:07:59.679Z,32.24
2023-02-08T14:10:53.380Z,31.37
2023-02-08T14:13:20.503Z,31.50
2023-02-08T14:15:47.989Z,32.74
2023-02-08T14:18:19.909Z,34.28
2023-02-08T14:20:55.413Z,34.95
2023-02-08T14:23:23.822Z,33.88
2023-02-08T14:25:51.690Z,34.49
2023-02-08T14:28:35.195Z,34.98
2023-02-08T14:31:03.539Z,35.00
2023-02-08T14:33:35.254Z,34.45
2023-02-08T14:36:04.202Z,34.65
2023-02-08T14:38:33.347Z,34.40
2023-02-08T14:41:01.552Z,32.32
2023-02-08T14:43:38.892Z,32.03
2023-02-08T14:46:25.120Z,31.45
2023-02-08T14:48:52.622Z,30.90
2023-02-08T14:51:22.240Z,31.07
2023-02-08T14:53:52.965Z,30.67
2023-02-08T14:56:23.413Z,30.70
2023-02-08T14:59:10.778Z,32.16
2023-02-08T15:02:00.098Z,30.68
2023-02-08T15:04:27.359Z,32.05
2023-02-08T15:07:01.781Z,32.12
2023-02-08T15:09:29.471Z,31.72
2023-02-08T15:12:00.992Z,31.69
2023-02-08T15:14:28.745Z,30.52
2023-02-08T15:16:56.152Z,30.23
2023-02-08T15:19:23.531Z,31.77
2023-02-08T15:21:50.703Z,31.72
2023-02-08T15:24:18.819Z,31.92
2023-02-08T15:26:48.349Z,31.71
2023-02-08T15:29:32.758Z,32.10
2023-02-08T15:32:00.410Z,33.25
2023-02-08T15:34:27.618Z,33.54
2023-02-08T15:36:55.547Z,33.67
2023-02-08T15:39:24.561Z,33.58
2023-02-08T15:41:51.772Z,33.04
2023-02-08T15:44:30.112Z,32.21
2023-02-08T15:46:59.459Z,31.75
2023-02-08T15:49:28.763Z,31.00
2023-02-08T15:51:57.054Z,31.01
2023-02-08T15:54:24.540Z,30.99
2023-02-08T15:56:54.471Z,31.75
2023-02-08T15:59:25.874Z,30.93
2023-02-08T16:01:53.929Z,31.19
2023-02-08T16:04:21.471Z,31.71
2023-02-08T16:06:53.325Z,30.95
2023-02-08T16:09:25.608Z,30.22
2023-02-08T16:11:53.237Z,30.01
2023-02-08T16:14:24.229Z,30.55
2023-02-08T16:16:56.305Z,29.93
2023-02-08T16:19:31.196Z,30.57
2023-02-08T16:22:17.751Z,30.68
2023-02-08T16:24:46.991Z,30.43
2023-02-08T16:27:41.122Z,30.04
2023-02-08T16:30:15.517Z,29.53
2023-02-08T16:32:43.033Z,30.21
2023-02-08T16:35:13.815Z,30.01
2023-02-08T16:37:41.330Z,30.10
2023-02-08T16:40:27.233Z,30.17
2023-02-08T16:42:54.454Z,30.00
2023-02-08T16:45:22.804Z,30.17
2023-02-08T16:47:51.354Z,29.52
2023-02-08T16:50:19.699Z,29.96
2023-02-08T16:52:54.777Z,30.48
2023-02-08T16:55:23.500Z,30.16
2023-02-08T16:57:52.420Z,30.33
2023-02-08T17:00:21.556Z,30.28
2023-02-08T17:02:49.370Z,30.20
2023-02-08T17:05:17.480Z,30.27
2023-02-08T17:07:45.191Z,30.02
2023-02-08T17:10:28.813Z,30.40
2023-02-08T17:13:09.887Z,30.40
2023-02-08T17:15:46.207Z,32.49
2023-02-08T17:18:14.424Z,33.07
2023-02-08T17:20:42.933Z,33.40
2023-02-08T17:23:10.744Z,32.76
2023-02-08T17:25:38.733Z,32.86
2023-02-08T17:28:11.182Z,33.69
2023-02-08T17:30:40.620Z,33.85
2023-02-08T17:33:08.259Z,34.79
2023-02-08T17:35:37.718Z,33.02
2023-02-08T17:38:05.879Z,32.73
2023-02-08T17:40:34.223Z,33.41
2023-02-08T17:43:02.382Z,34.87
2023-02-08T17:45:31.076Z,34.95
2023-02-08T17:48:01.479Z,35.35
2023-02-08T17:50:30.590Z,33.46
2023-02-08T17:52:58.673Z,34.34
2023-02-08T17:55:26.281Z,34.25
2023-02-08T17:57:53.962Z,34.34
2023-02-08T18:00:23.846Z,34.11
2023-02-08T18:02:54.013Z,33.19
2023-02-08T18:05:25.622Z,34.83
2023-02-08T18:07:56.493Z,34.88
2023-02-08T18:10:24.801Z,34.96
2023-02-08T18:12:53.756Z,34.69
2023-02-08T18:15:21.526Z,34.79
2023-02-08T18:17:50.684Z,34.15
2023-02-08T18:20:19.920Z,34.26
2023-02-08T18:22:49.270Z,34.87
2023-02-08T18:25:21.103Z,34.21
2023-02-08T18:27:49.291Z,34.34
2023-02-08T18:30:17.867Z,34.41
2023-02-08T18:32:46.071Z,34.84
2023-02-08T18:35:13.949Z,34.88
2023-02-08T18:37:44.864Z,34.99
2023-02-08T18:40:13.643Z,35.68
2023-02-08T18:42:41.546Z,36.38
2023-02-08T18:45:12.019Z,35.36
2023-02-08T18:47:40.783Z,36.72
2023-02-08T18:50:09.738Z,36.31
2023-02-08T18:52:37.967Z,35.87
2023-02-08T18:55:06.609Z,35.14
2023-02-08T18:57:39.317Z,37.11
2023-02-08T19:00:09.984Z,37.62
2023-02-08T19:02:39.639Z,38.68
2023-02-08T19:05:09.603Z,38.13
2023-02-08T19:07:38.912Z,37.03
2023-02-08T19:10:08.533Z,37.90
2023-02-08T19:12:38.419Z,37.39
2023-02-08T19:15:14.160Z,37.71
2023-02-08T19:17:44.249Z,38.08
2023-02-08T19:20:12.436Z,38.37
2023-02-08T19:22:40.726Z,38.71
2023-02-08T19:25:09.246Z,38.67
2023-02-08T19:27:37.486Z,38.91
2023-02-08T19:30:05.595Z,40.01
2023-02-08T19:32:36.497Z,38.54
2023-02-08T19:35:07.209Z,37.43
2023-02-08T19:37:37.261Z,36.58
2023-02-08T19:40:05.297Z,35.92
2023-02-08T19:42:33.841Z,34.67
2023-02-08T19:45:04.747Z,34.72
2023-02-08T19:47:50.286Z,34.79
2023-02-08T19:50:19.179Z,34.08
2023-02-08T19:52:47.237Z,34.12
2023-02-08T19:55:15.734Z,33.58
2023-02-08T19:57:44.655Z,33.48
2023-02-08T20:00:22.958Z,33.68
2023-02-08T20:02:53.273Z,33.34
2023-02-08T20:05:21.670Z,33.19
2023-02-08T20:07:51.962Z,33.19
2023-02-08T20:10:21.605Z,33.54
2023-02-08T20:12:50.078Z,33.44
2023-02-08T20:15:18.215Z,33.33
2023-02-08T20:17:46.424Z,32.97
2023-02-08T20:20:15.773Z,33.82
2023-02-08T20:22:43.729Z,33.36
2023-02-08T20:25:12.398Z,33.51
2023-02-08T20:27:40.870Z,33.42
2023-02-08T20:30:09.274Z,33.22
2023-02-08T20:32:37.584Z,33.29
2023-02-08T20:35:05.343Z,33.14
2023-02-08T20:37:33.859Z,33.15
2023-02-08T20:40:02.738Z,33.35
2023-02-08T20:42:31.129Z,33.54
2023-02-08T20:45:03.397Z,33.57
2023-02-08T20:47:41.724Z,33.49
2023-02-08T20:50:19.290Z,33.35
2023-02-08T20:52:52.053Z,33.33
2023-02-08T20:55:19.687Z,33.32
2023-02-08T20:57:49.124Z,33.58
2023-02-08T21:00:19.709Z,33.76
2023-02-08T21:02:48.255Z,34.00
2023-02-08T21:05:17.780Z,33.67
2023-02-08T21:07:45.801Z,33.71
2023-02-08T21:10:13.520Z,33.98
2023-02-08T21:12:44.031Z,33.81
2023-02-08T21:15:11.929Z,33.88
2023-02-08T21:17:41.103Z,33.93
2023-02-08T21:20:09.810Z,33.51
2023-02-08T21:22:37.928Z,33.59
2023-02-08T21:25:07.775Z,33.66
2023-02-08T21:27:53.594Z,33.90
2023-02-08T21:30:21.261Z,33.74
2023-02-08T21:32:48.672Z,34.15
2023-02-08T21:35:17.893Z,33.85
2023-02-08T21:37:45.633Z,33.65
2023-02-08T21:40:13.043Z,33.81
2023-02-08T21:42:40.472Z,33.80
2023-02-08T21:45:09.832Z,33.66
2023-02-08T21:47:37.333Z,33.69
2023-02-08T21:50:23.424Z,33.64
2023-02-08T21:53:09.407Z,33.53
2023-02-08T21:55:36.677Z,33.67
2023-02-08T21:58:04.215Z,33.89
2023-02-08T22:00:31.453Z,33.64
2023-02-08T22:02:59.007Z,33.42
2023-02-08T22:05:26.322Z,33.59
2023-02-08T22:07:54.542Z,33.81
2023-02-08T22:10:26.517Z,33.79
2023-02-08T22:12:55.883Z,34.26
2023-02-08T22:15:24.539Z,34.08
2023-02-08T22:17:55.710Z,34.23
2023-02-08T22:20:23.354Z,33.79
2023-02-08T22:22:52.605Z,34.06
2023-02-08T22:25:21.809Z,33.95
2023-02-08T22:27:49.290Z,33.77
2023-02-08T22:30:17.199Z,33.81
2023-02-08T22:32:45.255Z,33.77
2023-02-08T22:35:14.756Z,34.26
2023-02-08T22:37:41.911Z,34.32
2023-02-08T22:40:09.665Z,34.12
2023-02-08T22:42:38.323Z,33.87
2023-02-08T22:45:05.561Z,33.87
2023-02-08T22:47:33.265Z,34.18
2023-02-08T22:50:01.144Z,34.17
2023-02-08T22:52:28.405Z,34.69
2023-02-08T22:54:56.188Z,35.05
2023-02-08T22:57:23.609Z,35.08
2023-02-08T22:59:50.831Z,35.11
2023-02-08T23:02:18.033Z,35.30
2023-02-08T23:04:45.462Z,34.64
2023-02-08T23:07:12.606Z,35.14
2023-02-08T23:09:39.729Z,35.30
2023-02-08T23:12:07.233Z,35.13
2023-02-08T23:14:35.964Z,35.28
2023-02-08T23:17:03.361Z,35.23
2023-02-08T23:19:30.782Z,35.12
2023-02-08T23:21:58.446Z,35.61
2023-02-08T23:24:25.938Z,35.69
2023-02-08T23:26:53.434Z,35.87
2023-02-08T23:29:20.592Z,35.45
2023-02-08T23:31:48.944Z,35.29
2023-02-08T23:34:16.477Z,35.21
2023-02-08T23:36:43.627Z,35.15
2023-02-08T23:39:10.769Z,35.19
2023-02-08T23:41:38.202Z,35.02
2023-02-08T23:44:05.445Z,35.26
2023-02-08T23:46:32.775Z,35.15
2023-02-08T23:49:00.240Z,35.24
2023-02-08T23:51:27.408Z,35.19
2023-02-08T23:53:55.233Z,35.03
2023-02-08T23:56:26.478Z,35.08
2023-02-08T23:58:54.707Z,35.23
